sensor_id;sensor_type;location;lat;lon;timestamp;P1;durP1;ratioP1;P2;durP2;ratioP2
46216;SDS011;47258;59.424;13.482;2022-12-29T00:01:32;6.85;;;1.73;;
46216;SDS011;47258;59.424;13.482;2022-12-29T00:04:00;5.28;;;2.53;;
46216;SDS011;47258;59.424;13.482;2022-12-29T00:06:27;3.55;;;1.60;;
46216;SDS011;47258;59.424;13.482;2022-12-29T00:08:56;1.52;;;1.35;;
46216;SDS011;47258;59.424;13.482;2022-12-29T00:11:24;3.08;;;1.90;;
46216;SDS011;47258;59.424;13.482;2022-12-29T00:13:53;4.97;;;1.63;;
46216;SDS011;47258;59.424;13.482;2022-12-29T00:16:52;1.95;;;1.60;;
46216;SDS011;47258;59.424;13.482;2022-12-29T00:19:19;6.22;;;1.70;;
46216;SDS011;47258;59.424;13.482;2022-12-29T00:22:03;2.42;;;1.60;;
46216;SDS011;47258;59.424;13.482;2022-12-29T00:24:49;4.35;;;2.35;;
46216;SDS011;47258;59.424;13.482;2022-12-29T00:27:33;3.45;;;1.98;;
46216;SDS011;47258;59.424;13.482;2022-12-29T00:30:18;5.15;;;2.05;;
46216;SDS011;47258;59.424;13.482;2022-12-29T00:33:08;3.70;;;2.17;;
46216;SDS011;47258;59.424;13.482;2022-12-29T00:35:53;4.82;;;3.35;;
46216;SDS011;47258;59.424;13.482;2022-12-29T00:41:08;4.70;;;2.70;;
46216;SDS011;47258;59.424;13.482;2022-12-29T00:43:52;3.67;;;2.83;;
46216;SDS011;47258;59.424;13.482;2022-12-29T00:46:31;4.22;;;2.72;;
46216;SDS011;47258;59.424;13.482;2022-12-29T00:48:59;2.35;;;2.15;;
46216;SDS011;47258;59.424;13.482;2022-12-29T00:51:44;2.88;;;2.58;;
46216;SDS011;47258;59.424;13.482;2022-12-29T00:54:11;5.15;;;2.28;;
46216;SDS011;47258;59.424;13.482;2022-12-29T00:56:40;4.63;;;2.20;;
46216;SDS011;47258;59.424;13.482;2022-12-29T00:59:08;4.78;;;2.42;;
46216;SDS011;47258;59.424;13.482;2022-12-29T01:01:37;5.57;;;2.88;;
46216;SDS011;47258;59.424;13.482;2022-12-29T01:04:04;4.13;;;2.63;;
46216;SDS011;47258;59.424;13.482;2022-12-29T01:06:32;7.45;;;3.53;;
46216;SDS011;47258;59.424;13.482;2022-12-29T01:09:01;5.03;;;2.88;;
46216;SDS011;47258;59.424;13.482;2022-12-29T01:11:48;4.10;;;3.25;;
46216;SDS011;47258;59.424;13.482;2022-12-29T01:14:15;3.45;;;2.80;;
46216;SDS011;47258;59.424;13.482;2022-12-29T01:16:43;4.15;;;3.53;;
46216;SDS011;47258;59.424;13.482;2022-12-29T01:19:10;9.18;;;4.88;;
46216;SDS011;47258;59.424;13.482;2022-12-29T01:21:37;3.00;;;2.70;;
46216;SDS011;47258;59.424;13.482;2022-12-29T01:24:04;7.47;;;3.67;;
46216;SDS011;47258;59.424;13.482;2022-12-29T01:26:32;4.38;;;3.33;;
46216;SDS011;47258;59.424;13.482;2022-12-29T01:29:00;3.53;;;3.22;;
46216;SDS011;47258;59.424;13.482;2022-12-29T01:31:27;4.30;;;2.75;;
46216;SDS011;47258;59.424;13.482;2022-12-29T01:33:55;3.92;;;2.20;;
46216;SDS011;47258;59.424;13.482;2022-12-29T01:36:22;3.78;;;2.85;;
46216;SDS011;47258;59.424;13.482;2022-12-29T01:38:50;2.95;;;2.75;;
46216;SDS011;47258;59.424;13.482;2022-12-29T01:41:17;5.10;;;2.75;;
46216;SDS011;47258;59.424;13.482;2022-12-29T01:43:45;7.15;;;3.30;;
46216;SDS011;47258;59.424;13.482;2022-12-29T01:46:18;5.05;;;3.15;;
46216;SDS011;47258;59.424;13.482;2022-12-29T01:48:51;2.72;;;2.53;;
46216;SDS011;47258;59.424;13.482;2022-12-29T01:51:20;4.00;;;2.50;;
46216;SDS011;47258;59.424;13.482;2022-12-29T01:53:51;4.50;;;2.78;;
46216;SDS011;47258;59.424;13.482;2022-12-29T01:56:20;5.03;;;2.60;;
46216;SDS011;47258;59.424;13.482;2022-12-29T01:58:48;3.45;;;3.08;;
46216;SDS011;47258;59.424;13.482;2022-12-29T02:01:22;4.15;;;3.30;;
46216;SDS011;47258;59.424;13.482;2022-12-29T02:03:49;3.47;;;2.55;;
46216;SDS011;47258;59.424;13.482;2022-12-29T02:06:19;3.85;;;2.70;;
46216;SDS011;47258;59.424;13.482;2022-12-29T02:08:49;4.63;;;2.92;;
46216;SDS011;47258;59.424;13.482;2022-12-29T02:11:18;3.13;;;2.78;;
46216;SDS011;47258;59.424;13.482;2022-12-29T02:13:47;4.68;;;3.00;;
46216;SDS011;47258;59.424;13.482;2022-12-29T02:16:18;4.10;;;3.20;;
46216;SDS011;47258;59.424;13.482;2022-12-29T02:19:10;3.38;;;2.75;;
46216;SDS011;47258;59.424;13.482;2022-12-29T02:22:05;3.75;;;3.35;;
46216;SDS011;47258;59.424;13.482;2022-12-29T02:24:48;3.17;;;2.90;;
46216;SDS011;47258;59.424;13.482;2022-12-29T02:27:52;4.93;;;2.55;;
46216;SDS011;47258;59.424;13.482;2022-12-29T02:33:19;3.10;;;2.60;;
46216;SDS011;47258;59.424;13.482;2022-12-29T02:35:54;3.67;;;3.30;;
46216;SDS011;47258;59.424;13.482;2022-12-29T02:38:30;2.92;;;2.50;;
46216;SDS011;47258;59.424;13.482;2022-12-29T02:41:07;5.88;;;3.03;;
46216;SDS011;47258;59.424;13.482;2022-12-29T02:43:43;3.75;;;2.80;;
46216;SDS011;47258;59.424;13.482;2022-12-29T02:46:19;4.15;;;2.80;;
46216;SDS011;47258;59.424;13.482;2022-12-29T02:48:54;3.40;;;3.10;;
46216;SDS011;47258;59.424;13.482;2022-12-29T02:51:29;3.58;;;2.58;;
46216;SDS011;47258;59.424;13.482;2022-12-29T02:54:00;3.75;;;3.00;;
46216;SDS011;47258;59.424;13.482;2022-12-29T02:56:44;3.58;;;2.70;;
46216;SDS011;47258;59.424;13.482;2022-12-29T02:59:12;4.65;;;3.33;;
46216;SDS011;47258;59.424;13.482;2022-12-29T03:01:43;4.78;;;3.30;;
46216;SDS011;47258;59.424;13.482;2022-12-29T03:04:44;3.10;;;2.70;;
46216;SDS011;47258;59.424;13.482;2022-12-29T03:07:25;4.78;;;2.50;;
46216;SDS011;47258;59.424;13.482;2022-12-29T03:09:59;2.53;;;1.98;;
46216;SDS011;47258;59.424;13.482;2022-12-29T03:12:34;2.40;;;2.20;;
46216;SDS011;47258;59.424;13.482;2022-12-29T03:15:27;2.60;;;2.00;;
46216;SDS011;47258;59.424;13.482;2022-12-29T03:18:19;1.70;;;1.60;;
46216;SDS011;47258;59.424;13.482;2022-12-29T03:20:49;2.95;;;2.50;;
46216;SDS011;47258;59.424;13.482;2022-12-29T03:23:20;3.50;;;2.10;;
46216;SDS011;47258;59.424;13.482;2022-12-29T03:25:50;3.22;;;2.10;;
46216;SDS011;47258;59.424;13.482;2022-12-29T03:28:21;3.38;;;2.25;;
46216;SDS011;47258;59.424;13.482;2022-12-29T03:33:19;1.92;;;1.60;;
46216;SDS011;47258;59.424;13.482;2022-12-29T03:35:49;1.88;;;1.77;;
46216;SDS011;47258;59.424;13.482;2022-12-29T03:40:48;2.90;;;2.27;;
46216;SDS011;47258;59.424;13.482;2022-12-29T03:43:18;2.65;;;1.55;;
46216;SDS011;47258;59.424;13.482;2022-12-29T03:45:45;2.90;;;1.85;;
46216;SDS011;47258;59.424;13.482;2022-12-29T03:48:13;2.22;;;1.67;;
46216;SDS011;47258;59.424;13.482;2022-12-29T03:50:41;2.47;;;2.00;;
46216;SDS011;47258;59.424;13.482;2022-12-29T03:53:08;4.60;;;1.98;;
46216;SDS011;47258;59.424;13.482;2022-12-29T03:55:35;4.90;;;2.05;;
46216;SDS011;47258;59.424;13.482;2022-12-29T03:58:02;3.75;;;2.05;;
46216;SDS011;47258;59.424;13.482;2022-12-29T04:00:29;3.13;;;2.15;;
46216;SDS011;47258;59.424;13.482;2022-12-29T04:02:56;2.88;;;2.15;;
46216;SDS011;47258;59.424;13.482;2022-12-29T04:05:23;4.85;;;2.53;;
46216;SDS011;47258;59.424;13.482;2022-12-29T04:07:52;3.00;;;2.78;;
46216;SDS011;47258;59.424;13.482;2022-12-29T04:10:19;3.20;;;2.90;;
46216;SDS011;47258;59.424;13.482;2022-12-29T04:12:46;2.72;;;1.75;;
46216;SDS011;47258;59.424;13.482;2022-12-29T04:15:13;2.55;;;2.28;;
46216;SDS011;47258;59.424;13.482;2022-12-29T04:17:40;2.63;;;1.77;;
46216;SDS011;47258;59.424;13.482;2022-12-29T04:20:08;2.45;;;2.22;;
46216;SDS011;47258;59.424;13.482;2022-12-29T04:22:58;1.90;;;1.70;;
46216;SDS011;47258;59.424;13.482;2022-12-29T04:25:26;2.47;;;1.77;;
46216;SDS011;47258;59.424;13.482;2022-12-29T04:27:53;4.03;;;2.20;;
46216;SDS011;47258;59.424;13.482;2022-12-29T04:30:20;2.97;;;2.20;;
46216;SDS011;47258;59.424;13.482;2022-12-29T04:32:47;1.67;;;1.58;;
46216;SDS011;47258;59.424;13.482;2022-12-29T04:35:14;3.95;;;1.52;;
46216;SDS011;47258;59.424;13.482;2022-12-29T04:37:42;1.40;;;1.30;;
46216;SDS011;47258;59.424;13.482;2022-12-29T04:40:11;2.95;;;1.83;;
46216;SDS011;47258;59.424;13.482;2022-12-29T04:42:38;1.35;;;1.25;;
46216;SDS011;47258;59.424;13.482;2022-12-29T04:45:06;6.10;;;2.47;;
46216;SDS011;47258;59.424;13.482;2022-12-29T04:47:33;2.10;;;2.00;;
46216;SDS011;47258;59.424;13.482;2022-12-29T04:50:01;5.75;;;2.47;;
46216;SDS011;47258;59.424;13.482;2022-12-29T04:52:28;2.05;;;1.52;;
46216;SDS011;47258;59.424;13.482;2022-12-29T04:54:55;1.70;;;1.60;;
46216;SDS011;47258;59.424;13.482;2022-12-29T04:57:23;3.00;;;1.50;;
46216;SDS011;47258;59.424;13.482;2022-12-29T04:59:50;3.45;;;1.88;;
46216;SDS011;47258;59.424;13.482;2022-12-29T05:02:17;5.78;;;2.08;;
46216;SDS011;47258;59.424;13.482;2022-12-29T05:04:44;1.15;;;1.15;;
46216;SDS011;47258;59.424;13.482;2022-12-29T05:07:12;2.40;;;1.73;;
46216;SDS011;47258;59.424;13.482;2022-12-29T05:09:39;4.25;;;1.77;;
46216;SDS011;47258;59.424;13.482;2022-12-29T05:12:06;2.30;;;1.70;;
46216;SDS011;47258;59.424;13.482;2022-12-29T05:14:35;1.88;;;1.75;;
46216;SDS011;47258;59.424;13.482;2022-12-29T05:17:02;2.38;;;1.70;;
46216;SDS011;47258;59.424;13.482;2022-12-29T05:19:29;2.28;;;1.45;;
46216;SDS011;47258;59.424;13.482;2022-12-29T05:21:56;1.73;;;1.63;;
46216;SDS011;47258;59.424;13.482;2022-12-29T05:24:23;1.58;;;1.48;;
46216;SDS011;47258;59.424;13.482;2022-12-29T05:26:50;2.08;;;1.60;;
46216;SDS011;47258;59.424;13.482;2022-12-29T05:29:17;2.33;;;1.48;;
46216;SDS011;47258;59.424;13.482;2022-12-29T05:31:46;1.70;;;1.55;;
46216;SDS011;47258;59.424;13.482;2022-12-29T05:34:13;2.25;;;1.48;;
46216;SDS011;47258;59.424;13.482;2022-12-29T05:36:40;2.90;;;1.92;;
46216;SDS011;47258;59.424;13.482;2022-12-29T05:39:07;1.77;;;1.67;;
46216;SDS011;47258;59.424;13.482;2022-12-29T05:41:34;1.92;;;1.67;;
46216;SDS011;47258;59.424;13.482;2022-12-29T05:44:02;1.52;;;1.42;;
46216;SDS011;47258;59.424;13.482;2022-12-29T05:46:29;1.73;;;1.63;;
46216;SDS011;47258;59.424;13.482;2022-12-29T05:48:57;2.63;;;1.40;;
46216;SDS011;47258;59.424;13.482;2022-12-29T05:51:24;3.38;;;2.00;;
46216;SDS011;47258;59.424;13.482;2022-12-29T05:53:51;3.17;;;1.35;;
46216;SDS011;47258;59.424;13.482;2022-12-29T05:56:18;2.67;;;2.45;;
46216;SDS011;47258;59.424;13.482;2022-12-29T05:58:45;5.40;;;1.40;;
46216;SDS011;47258;59.424;13.482;2022-12-29T06:01:13;1.70;;;1.60;;
46216;SDS011;47258;59.424;13.482;2022-12-29T06:03:40;1.70;;;1.60;;
46216;SDS011;47258;59.424;13.482;2022-12-29T06:06:08;2.03;;;1.52;;
46216;SDS011;47258;59.424;13.482;2022-12-29T06:08:35;5.38;;;2.15;;
46216;SDS011;47258;59.424;13.482;2022-12-29T06:11:02;1.60;;;1.50;;
46216;SDS011;47258;59.424;13.482;2022-12-29T06:13:29;2.65;;;1.85;;
46216;SDS011;47258;59.424;13.482;2022-12-29T06:15:56;1.77;;;1.35;;
46216;SDS011;47258;59.424;13.482;2022-12-29T06:18:23;2.22;;;1.50;;
46216;SDS011;47258;59.424;13.482;2022-12-29T06:20:51;1.60;;;1.50;;
46216;SDS011;47258;59.424;13.482;2022-12-29T06:23:19;1.60;;;1.50;;
46216;SDS011;47258;59.424;13.482;2022-12-29T06:25:47;7.45;;;2.83;;
46216;SDS011;47258;59.424;13.482;2022-12-29T06:28:14;1.65;;;1.55;;
46216;SDS011;47258;59.424;13.482;2022-12-29T06:30:43;1.70;;;1.60;;
46216;SDS011;47258;59.424;13.482;2022-12-29T06:33:10;2.05;;;1.45;;
46216;SDS011;47258;59.424;13.482;2022-12-29T06:35:37;1.85;;;1.58;;
46216;SDS011;47258;59.424;13.482;2022-12-29T06:38:04;4.05;;;1.48;;
46216;SDS011;47258;59.424;13.482;2022-12-29T06:40:33;2.17;;;1.30;;
46216;SDS011;47258;59.424;13.482;2022-12-29T06:43:00;2.00;;;1.20;;
46216;SDS011;47258;59.424;13.482;2022-12-29T06:45:27;1.73;;;1.45;;
46216;SDS011;47258;59.424;13.482;2022-12-29T06:47:54;1.40;;;1.30;;
46216;SDS011;47258;59.424;13.482;2022-12-29T06:50:21;1.05;;;1.00;;
46216;SDS011;47258;59.424;13.482;2022-12-29T06:52:48;1.25;;;0.90;;
46216;SDS011;47258;59.424;13.482;2022-12-29T06:55:15;1.52;;;1.15;;
46216;SDS011;47258;59.424;13.482;2022-12-29T06:57:44;1.30;;;1.20;;
46216;SDS011;47258;59.424;13.482;2022-12-29T07:00:11;1.30;;;1.20;;
46216;SDS011;47258;59.424;13.482;2022-12-29T07:02:39;0.98;;;0.95;;
46216;SDS011;47258;59.424;13.482;2022-12-29T07:05:06;1.52;;;1.27;;
46216;SDS011;47258;59.424;13.482;2022-12-29T07:07:35;1.53;;;1.43;;
46216;SDS011;47258;59.424;13.482;2022-12-29T07:10:02;2.33;;;1.13;;
46216;SDS011;47258;59.424;13.482;2022-12-29T07:12:29;3.80;;;1.75;;
46216;SDS011;47258;59.424;13.482;2022-12-29T07:14:58;1.98;;;1.77;;
46216;SDS011;47258;59.424;13.482;2022-12-29T07:17:25;3.05;;;1.48;;
46216;SDS011;47258;59.424;13.482;2022-12-29T07:19:52;2.25;;;1.50;;
46216;SDS011;47258;59.424;13.482;2022-12-29T07:22:19;2.45;;;1.50;;
46216;SDS011;47258;59.424;13.482;2022-12-29T07:24:46;1.70;;;1.60;;
46216;SDS011;47258;59.424;13.482;2022-12-29T07:27:13;1.85;;;1.75;;
46216;SDS011;47258;59.424;13.482;2022-12-29T07:29:40;2.45;;;1.35;;
46216;SDS011;47258;59.424;13.482;2022-12-29T07:32:09;3.90;;;1.80;;
46216;SDS011;47258;59.424;13.482;2022-12-29T07:34:36;2.20;;;1.75;;
46216;SDS011;47258;59.424;13.482;2022-12-29T07:37:04;3.85;;;1.98;;
46216;SDS011;47258;59.424;13.482;2022-12-29T07:39:31;3.03;;;2.10;;
46216;SDS011;47258;59.424;13.482;2022-12-29T07:41:58;2.13;;;1.63;;
46216;SDS011;47258;59.424;13.482;2022-12-29T07:44:25;2.28;;;1.80;;
46216;SDS011;47258;59.424;13.482;2022-12-29T07:46:53;4.50;;;2.58;;
46216;SDS011;47258;59.424;13.482;2022-12-29T07:49:21;2.15;;;1.92;;
46216;SDS011;47258;59.424;13.482;2022-12-29T07:51:48;2.05;;;1.42;;
46216;SDS011;47258;59.424;13.482;2022-12-29T07:54:15;4.35;;;1.95;;
46216;SDS011;47258;59.424;13.482;2022-12-29T07:56:43;4.55;;;2.85;;
46216;SDS011;47258;59.424;13.482;2022-12-29T07:59:10;7.15;;;3.08;;
46216;SDS011;47258;59.424;13.482;2022-12-29T08:01:38;2.83;;;2.20;;
46216;SDS011;47258;59.424;13.482;2022-12-29T08:04:05;4.43;;;2.17;;
46216;SDS011;47258;59.424;13.482;2022-12-29T08:06:34;3.25;;;2.40;;
46216;SDS011;47258;59.424;13.482;2022-12-29T08:09:02;3.75;;;2.65;;
46216;SDS011;47258;59.424;13.482;2022-12-29T08:11:30;2.58;;;2.03;;
46216;SDS011;47258;59.424;13.482;2022-12-29T08:13:57;4.80;;;2.20;;
46216;SDS011;47258;59.424;13.482;2022-12-29T08:16:24;3.42;;;2.05;;
46216;SDS011;47258;59.424;13.482;2022-12-29T08:18:51;4.18;;;1.90;;
46216;SDS011;47258;59.424;13.482;2022-12-29T08:21:18;4.18;;;1.90;;
46216;SDS011;47258;59.424;13.482;2022-12-29T08:23:46;2.78;;;2.47;;
46216;SDS011;47258;59.424;13.482;2022-12-29T08:26:14;7.13;;;2.50;;
46216;SDS011;47258;59.424;13.482;2022-12-29T08:28:41;2.97;;;1.90;;
46216;SDS011;47258;59.424;13.482;2022-12-29T08:31:08;3.40;;;2.28;;
46216;SDS011;47258;59.424;13.482;2022-12-29T08:33:35;2.97;;;2.05;;
46216;SDS011;47258;59.424;13.482;2022-12-29T08:36:03;4.35;;;2.38;;
46216;SDS011;47258;59.424;13.482;2022-12-29T08:38:31;5.35;;;2.80;;
46216;SDS011;47258;59.424;13.482;2022-12-29T08:41:00;4.40;;;2.63;;
46216;SDS011;47258;59.424;13.482;2022-12-29T08:43:27;4.32;;;3.03;;
46216;SDS011;47258;59.424;13.482;2022-12-29T08:45:55;6.05;;;2.40;;
46216;SDS011;47258;59.424;13.482;2022-12-29T08:48:23;6.47;;;2.88;;
46216;SDS011;47258;59.424;13.482;2022-12-29T08:50:51;3.80;;;2.70;;
46216;SDS011;47258;59.424;13.482;2022-12-29T08:53:18;8.73;;;2.88;;
46216;SDS011;47258;59.424;13.482;2022-12-29T08:55:46;4.85;;;2.88;;
46216;SDS011;47258;59.424;13.482;2022-12-29T08:58:15;5.57;;;2.40;;
46216;SDS011;47258;59.424;13.482;2022-12-29T09:00:43;4.80;;;2.95;;
46216;SDS011;47258;59.424;13.482;2022-12-29T09:03:10;5.18;;;2.15;;
46216;SDS011;47258;59.424;13.482;2022-12-29T09:05:37;3.25;;;2.33;;
46216;SDS011;47258;59.424;13.482;2022-12-29T09:08:04;4.35;;;2.35;;
46216;SDS011;47258;59.424;13.482;2022-12-29T09:10:31;4.75;;;2.47;;
46216;SDS011;47258;59.424;13.482;2022-12-29T09:12:59;3.75;;;2.28;;
46216;SDS011;47258;59.424;13.482;2022-12-29T09:15:27;6.03;;;2.90;;
46216;SDS011;47258;59.424;13.482;2022-12-29T09:17:54;4.30;;;2.78;;
46216;SDS011;47258;59.424;13.482;2022-12-29T09:20:21;3.08;;;2.83;;
46216;SDS011;47258;59.424;13.482;2022-12-29T09:22:48;4.35;;;2.95;;
46216;SDS011;47258;59.424;13.482;2022-12-29T09:25:15;2.60;;;1.92;;
46216;SDS011;47258;59.424;13.482;2022-12-29T09:27:43;6.38;;;2.50;;
46216;SDS011;47258;59.424;13.482;2022-12-29T09:30:10;3.33;;;2.53;;
46216;SDS011;47258;59.424;13.482;2022-12-29T09:32:40;3.53;;;2.78;;
46216;SDS011;47258;59.424;13.482;2022-12-29T09:35:08;3.03;;;2.17;;
46216;SDS011;47258;59.424;13.482;2022-12-29T09:37:35;6.43;;;2.83;;
46216;SDS011;47258;59.424;13.482;2022-12-29T09:40:02;4.72;;;3.00;;
46216;SDS011;47258;59.424;13.482;2022-12-29T09:42:32;4.45;;;2.25;;
46216;SDS011;47258;59.424;13.482;2022-12-29T09:45:06;2.13;;;1.73;;
46216;SDS011;47258;59.424;13.482;2022-12-29T09:47:38;1.98;;;1.80;;
46216;SDS011;47258;59.424;13.482;2022-12-29T09:50:09;2.78;;;1.67;;
46216;SDS011;47258;59.424;13.482;2022-12-29T09:52:44;2.90;;;1.55;;
46216;SDS011;47258;59.424;13.482;2022-12-29T09:55:17;1.95;;;1.25;;
46216;SDS011;47258;59.424;13.482;2022-12-29T09:57:48;3.13;;;1.73;;
46216;SDS011;47258;59.424;13.482;2022-12-29T10:00:21;4.40;;;1.67;;
46216;SDS011;47258;59.424;13.482;2022-12-29T10:02:51;2.88;;;2.05;;
46216;SDS011;47258;59.424;13.482;2022-12-29T10:05:27;2.67;;;2.28;;
46216;SDS011;47258;59.424;13.482;2022-12-29T10:08:15;2.85;;;1.90;;
46216;SDS011;47258;59.424;13.482;2022-12-29T10:10:53;3.80;;;2.00;;
46216;SDS011;47258;59.424;13.482;2022-12-29T10:13:36;2.67;;;1.30;;
46216;SDS011;47258;59.424;13.482;2022-12-29T10:16:10;1.35;;;1.10;;
46216;SDS011;47258;59.424;13.482;2022-12-29T10:18:51;1.90;;;1.80;;
46216;SDS011;47258;59.424;13.482;2022-12-29T10:21:31;4.00;;;1.65;;
46216;SDS011;47258;59.424;13.482;2022-12-29T10:24:07;2.97;;;1.58;;
46216;SDS011;47258;59.424;13.482;2022-12-29T10:26:39;1.95;;;1.55;;
46216;SDS011;47258;59.424;13.482;2022-12-29T10:29:11;4.38;;;2.33;;
46216;SDS011;47258;59.424;13.482;2022-12-29T10:31:43;3.03;;;2.08;;
46216;SDS011;47258;59.424;13.482;2022-12-29T10:34:17;4.75;;;1.83;;
46216;SDS011;47258;59.424;13.482;2022-12-29T10:36:48;3.63;;;1.80;;
46216;SDS011;47258;59.424;13.482;2022-12-29T10:39:19;2.47;;;1.90;;
46216;SDS011;47258;59.424;13.482;2022-12-29T10:41:53;4.00;;;2.38;;
46216;SDS011;47258;59.424;13.482;2022-12-29T10:44:23;2.13;;;1.98;;
46216;SDS011;47258;59.424;13.482;2022-12-29T10:46:57;5.63;;;2.10;;
46216;SDS011;47258;59.424;13.482;2022-12-29T10:49:28;2.00;;;1.70;;
46216;SDS011;47258;59.424;13.482;2022-12-29T10:51:58;3.42;;;2.00;;
46216;SDS011;47258;59.424;13.482;2022-12-29T10:54:29;4.78;;;2.25;;
46216;SDS011;47258;59.424;13.482;2022-12-29T10:57:00;4.15;;;2.45;;
46216;SDS011;47258;59.424;13.482;2022-12-29T10:59:31;5.00;;;3.22;;
46216;SDS011;47258;59.424;13.482;2022-12-29T11:02:04;6.03;;;4.35;;
46216;SDS011;47258;59.424;13.482;2022-12-29T11:04:55;5.05;;;3.20;;
46216;SDS011;47258;59.424;13.482;2022-12-29T11:07:28;6.30;;;3.80;;
46216;SDS011;47258;59.424;13.482;2022-12-29T11:09:58;9.18;;;3.60;;
46216;SDS011;47258;59.424;13.482;2022-12-29T11:12:44;4.68;;;2.70;;
46216;SDS011;47258;59.424;13.482;2022-12-29T11:17:50;3.75;;;2.33;;
46216;SDS011;47258;59.424;13.482;2022-12-29T11:20:24;4.03;;;2.25;;
46216;SDS011;47258;59.424;13.482;2022-12-29T11:22:59;3.05;;;1.98;;
46216;SDS011;47258;59.424;13.482;2022-12-29T11:25:26;2.75;;;1.63;;
46216;SDS011;47258;59.424;13.482;2022-12-29T11:27:57;2.25;;;1.77;;
46216;SDS011;47258;59.424;13.482;2022-12-29T11:30:28;3.38;;;1.80;;
46216;SDS011;47258;59.424;13.482;2022-12-29T11:32:57;2.42;;;1.70;;
46216;SDS011;47258;59.424;13.482;2022-12-29T11:35:33;4.72;;;1.95;;
46216;SDS011;47258;59.424;13.482;2022-12-29T11:38:02;3.38;;;1.73;;
46216;SDS011;47258;59.424;13.482;2022-12-29T11:40:32;1.80;;;1.48;;
46216;SDS011;47258;59.424;13.482;2022-12-29T11:43:05;3.25;;;1.48;;
46216;SDS011;47258;59.424;13.482;2022-12-29T11:45:33;2.85;;;1.50;;
46216;SDS011;47258;59.424;13.482;2022-12-29T11:48:05;3.60;;;1.67;;
46216;SDS011;47258;59.424;13.482;2022-12-29T11:50:37;5.45;;;1.52;;
46216;SDS011;47258;59.424;13.482;2022-12-29T11:53:07;7.75;;;1.98;;
46216;SDS011;47258;59.424;13.482;2022-12-29T11:55:49;3.15;;;1.98;;
46216;SDS011;47258;59.424;13.482;2022-12-29T11:58:18;2.75;;;2.15;;
46216;SDS011;47258;59.424;13.482;2022-12-29T12:00:45;5.38;;;2.20;;
46216;SDS011;47258;59.424;13.482;2022-12-29T12:03:16;5.03;;;1.70;;
46216;SDS011;47258;59.424;13.482;2022-12-29T12:05:47;4.40;;;1.83;;
46216;SDS011;47258;59.424;13.482;2022-12-29T12:08:19;5.18;;;2.10;;
46216;SDS011;47258;59.424;13.482;2022-12-29T12:10:55;3.45;;;1.42;;
46216;SDS011;47258;59.424;13.482;2022-12-29T12:13:29;2.47;;;1.60;;
46216;SDS011;47258;59.424;13.482;2022-12-29T12:16:02;1.38;;;1.00;;
46216;SDS011;47258;59.424;13.482;2022-12-29T12:18:36;3.08;;;1.23;;
46216;SDS011;47258;59.424;13.482;2022-12-29T12:21:12;1.02;;;0.98;;
46216;SDS011;47258;59.424;13.482;2022-12-29T12:23:50;2.88;;;1.30;;
46216;SDS011;47258;59.424;13.482;2022-12-29T12:29:04;1.27;;;1.10;;
46216;SDS011;47258;59.424;13.482;2022-12-29T12:31:43;2.40;;;1.20;;
46216;SDS011;47258;59.424;13.482;2022-12-29T12:34:14;4.32;;;1.60;;
46216;SDS011;47258;59.424;13.482;2022-12-29T12:36:54;3.75;;;1.67;;
46216;SDS011;47258;59.424;13.482;2022-12-29T12:39:44;3.45;;;1.60;;
46216;SDS011;47258;59.424;13.482;2022-12-29T12:42:20;2.42;;;1.80;;
46216;SDS011;47258;59.424;13.482;2022-12-29T12:45:16;7.40;;;2.20;;
46216;SDS011;47258;59.424;13.482;2022-12-29T12:47:58;7.28;;;1.98;;
46216;SDS011;47258;59.424;13.482;2022-12-29T12:50:40;4.60;;;1.70;;
46216;SDS011;47258;59.424;13.482;2022-12-29T12:56:25;4.50;;;1.60;;
46216;SDS011;47258;59.424;13.482;2022-12-29T12:59:13;5.28;;;1.88;;
46216;SDS011;47258;59.424;13.482;2022-12-29T13:01:51;4.68;;;2.05;;
46216;SDS011;47258;59.424;13.482;2022-12-29T13:04:38;7.35;;;2.10;;
46216;SDS011;47258;59.424;13.482;2022-12-29T13:07:21;7.88;;;2.90;;
46216;SDS011;47258;59.424;13.482;2022-12-29T13:10:04;14.75;;;3.67;;
46216;SDS011;47258;59.424;13.482;2022-12-29T13:12:46;13.00;;;3.70;;
46216;SDS011;47258;59.424;13.482;2022-12-29T13:15:21;19.13;;;3.97;;
46216;SDS011;47258;59.424;13.482;2022-12-29T13:18:02;10.65;;;3.75;;
46216;SDS011;47258;59.424;13.482;2022-12-29T13:20:39;11.23;;;3.67;;
46216;SDS011;47258;59.424;13.482;2022-12-29T13:23:12;11.32;;;4.70;;
46216;SDS011;47258;59.424;13.482;2022-12-29T13:25:47;9.13;;;3.67;;
46216;SDS011;47258;59.424;13.482;2022-12-29T13:28:19;10.70;;;3.80;;
46216;SDS011;47258;59.424;13.482;2022-12-29T13:30:53;18.80;;;3.80;;
46216;SDS011;47258;59.424;13.482;2022-12-29T13:33:27;14.43;;;4.10;;
46216;SDS011;47258;59.424;13.482;2022-12-29T13:36:02;7.32;;;3.70;;
46216;SDS011;47258;59.424;13.482;2022-12-29T13:38:35;11.80;;;3.63;;
46216;SDS011;47258;59.424;13.482;2022-12-29T13:41:07;12.88;;;3.45;;
46216;SDS011;47258;59.424;13.482;2022-12-29T13:43:39;5.88;;;3.13;;
46216;SDS011;47258;59.424;13.482;2022-12-29T13:46:10;6.93;;;3.88;;
46216;SDS011;47258;59.424;13.482;2022-12-29T13:48:41;5.10;;;3.13;;
46216;SDS011;47258;59.424;13.482;2022-12-29T13:51:12;8.85;;;2.95;;
46216;SDS011;47258;59.424;13.482;2022-12-29T13:53:43;7.88;;;2.75;;
46216;SDS011;47258;59.424;13.482;2022-12-29T13:56:29;13.93;;;3.20;;
46216;SDS011;47258;59.424;13.482;2022-12-29T13:59:03;7.20;;;2.55;;
46216;SDS011;47258;59.424;13.482;2022-12-29T14:01:39;7.60;;;3.03;;
46216;SDS011;47258;59.424;13.482;2022-12-29T14:04:13;9.27;;;2.83;;
46216;SDS011;47258;59.424;13.482;2022-12-29T14:06:41;8.53;;;2.80;;
46216;SDS011;47258;59.424;13.482;2022-12-29T14:11:59;7.53;;;2.45;;
46216;SDS011;47258;59.424;13.482;2022-12-29T14:14:27;13.23;;;4.10;;
46216;SDS011;47258;59.424;13.482;2022-12-29T14:16:58;13.32;;;3.78;;
46216;SDS011;47258;59.424;13.482;2022-12-29T14:22:06;12.02;;;3.67;;
46216;SDS011;47258;59.424;13.482;2022-12-29T14:24:43;16.05;;;5.43;;
46216;SDS011;47258;59.424;13.482;2022-12-29T14:33:13;9.73;;;4.00;;
46216;SDS011;47258;59.424;13.482;2022-12-29T14:35:42;7.35;;;3.25;;
46216;SDS011;47258;59.424;13.482;2022-12-29T14:38:15;13.77;;;4.20;;
46216;SDS011;47258;59.424;13.482;2022-12-29T14:40:45;16.17;;;3.38;;
46216;SDS011;47258;59.424;13.482;2022-12-29T14:43:18;15.45;;;3.97;;
46216;SDS011;47258;59.424;13.482;2022-12-29T14:45:52;15.85;;;3.05;;
46216;SDS011;47258;59.424;13.482;2022-12-29T14:48:34;12.32;;;3.45;;
46216;SDS011;47258;59.424;13.482;2022-12-29T14:51:21;38.53;;;9.10;;
46216;SDS011;47258;59.424;13.482;2022-12-29T14:53:56;14.15;;;4.18;;
46216;SDS011;47258;59.424;13.482;2022-12-29T14:56:24;24.35;;;6.13;;
46216;SDS011;47258;59.424;13.482;2022-12-29T14:58:56;16.35;;;4.93;;
46216;SDS011;47258;59.424;13.482;2022-12-29T15:01:26;18.52;;;4.30;;
46216;SDS011;47258;59.424;13.482;2022-12-29T15:04:03;16.67;;;4.93;;
46216;SDS011;47258;59.424;13.482;2022-12-29T15:06:40;19.58;;;4.63;;
46216;SDS011;47258;59.424;13.482;2022-12-29T15:09:10;20.05;;;3.70;;
46216;SDS011;47258;59.424;13.482;2022-12-29T15:11:47;17.40;;;4.50;;
46216;SDS011;47258;59.424;13.482;2022-12-29T15:14:37;23.98;;;5.35;;
46216;SDS011;47258;59.424;13.482;2022-12-29T15:17:09;25.15;;;5.13;;
46216;SDS011;47258;59.424;13.482;2022-12-29T15:19:37;25.27;;;5.65;;
46216;SDS011;47258;59.424;13.482;2022-12-29T15:22:04;23.25;;;6.38;;
46216;SDS011;47258;59.424;13.482;2022-12-29T15:24:32;21.30;;;4.97;;
46216;SDS011;47258;59.424;13.482;2022-12-29T15:27:02;35.70;;;5.28;;
46216;SDS011;47258;59.424;13.482;2022-12-29T15:29:31;26.83;;;5.28;;